JIA5689 KDCA-KROA
Flight info
| Callsign | JIA5689 |
|---|---|
| Flight time | 0h 36m |
| Altitude | 24000 |
| Route | CLTCH3 MAULS |
| Aircraft | CRJ7/M-SDFGIRWY/S |
Departure
| Time | 2026-05-08 23:51 |
|---|---|
| Airport | Ronald Reagan Washington National Airport (KDCA) |
Arrival
| Time | 2026-05-09 00:28 |
|---|---|
| Airport | Roanoke–Blacksburg Regional Airport (KROA) |
| Time | Latitude | Longitude | Altitude | Speed | Heading |
|---|---|---|---|---|---|
| 2026-05-08 23:09 | 38.85783 | -77.04248 | 24 ft | 0 kts | 284° |
| 2026-05-08 23:10 | 38.85782 | -77.04244 | 25 ft | 0 kts | 283° |
| 2026-05-08 23:32 | 38.85780 | -77.04230 | 24 ft | 4 kts | 290° |
| 2026-05-08 23:32 | 38.85763 | -77.04208 | 25 ft | 4 kts | 341° |
| 2026-05-08 23:32 | 38.85740 | -77.04203 | 24 ft | 4 kts | 5° |
| 2026-05-08 23:32 | 38.85722 | -77.04218 | 24 ft | 4 kts | 68° |
| 2026-05-08 23:33 | 38.85715 | -77.04249 | 24 ft | 4 kts | 72° |
| 2026-05-08 23:33 | 38.85708 | -77.04274 | 25 ft | 0 kts | 72° |
| 2026-05-08 23:39 | 38.85708 | -77.04273 | 22 ft | 1 kts | 72° |
| 2026-05-08 23:39 | 38.85711 | -77.04261 | 23 ft | 3 kts | 72° |
| 2026-05-08 23:39 | 38.85718 | -77.04233 | 24 ft | 4 kts | 72° |
| 2026-05-08 23:40 | 38.85728 | -77.04194 | 22 ft | 5 kts | 72° |
| 2026-05-08 23:40 | 38.85736 | -77.04146 | 22 ft | 6 kts | 90° |
| 2026-05-08 23:40 | 38.85720 | -77.04102 | 23 ft | 6 kts | 138° |
| 2026-05-08 23:40 | 38.85691 | -77.04066 | 24 ft | 6 kts | 121° |
| 2026-05-08 23:41 | 38.85691 | -77.04018 | 23 ft | 5 kts | 69° |
| 2026-05-08 23:41 | 38.85711 | -77.03980 | 25 ft | 6 kts | 37° |
| 2026-05-08 23:41 | 38.85755 | -77.03976 | 24 ft | 7 kts | 353° |
| 2026-05-08 23:41 | 38.85808 | -77.03983 | 24 ft | 8 kts | 355° |
| 2026-05-08 23:42 | 38.85873 | -77.03989 | 23 ft | 10 kts | 356° |
| 2026-05-08 23:42 | 38.85927 | -77.03985 | 23 ft | 3 kts | 13° |
| 2026-05-08 23:42 | 38.85941 | -77.03980 | 23 ft | 0 kts | 16° |
| 2026-05-08 23:44 | 38.85942 | -77.03980 | 23 ft | 1 kts | 16° |
| 2026-05-08 23:44 | 38.85949 | -77.03977 | 23 ft | 2 kts | 16° |
| 2026-05-08 23:44 | 38.85966 | -77.03971 | 23 ft | 3 kts | 16° |
| 2026-05-08 23:45 | 38.85989 | -77.03962 | 23 ft | 0 kts | 16° |
| 2026-05-08 23:49 | 38.85998 | -77.03959 | 22 ft | 4 kts | 16° |
| 2026-05-08 23:49 | 38.86055 | -77.03937 | 22 ft | 11 kts | 20° |
| 2026-05-08 23:50 | 38.86082 | -77.03874 | 21 ft | 6 kts | 140° |
| 2026-05-08 23:50 | 38.86042 | -77.03865 | 22 ft | 10 kts | 173° |
| 2026-05-08 23:50 | 38.85834 | -77.03845 | 24 ft | 57 kts | 176° |
| 2026-05-08 23:50 | 38.85253 | -77.03786 | 21 ft | 108 kts | 175° |
| 2026-05-08 23:51 | 38.84368 | -77.03700 | 47 ft | 142 kts | 176° |
| 2026-05-08 23:51 | 38.83381 | -77.03594 | 560 ft | 139 kts | 174° |
| 2026-05-08 23:51 | 38.82394 | -77.03506 | 936 ft | 147 kts | 179° |
| 2026-05-08 23:51 | 38.81395 | -77.03476 | 1477 ft | 144 kts | 183° |
| 2026-05-08 23:52 | 38.80278 | -77.03491 | 1552 ft | 180 kts | 184° |
| 2026-05-08 23:52 | 38.78922 | -77.03526 | 1911 ft | 206 kts | 183° |
| 2026-05-08 23:52 | 38.77437 | -77.03542 | 2464 ft | 224 kts | 185° |
| 2026-05-08 23:52 | 38.75953 | -77.04191 | 3023 ft | 236 kts | 221° |
| 2026-05-08 23:53 | 38.75046 | -77.05982 | 3740 ft | 244 kts | 246° |
| 2026-05-08 23:53 | 38.74582 | -77.08101 | 4454 ft | 254 kts | 260° |
| 2026-05-08 23:53 | 38.74406 | -77.10374 | 4778 ft | 256 kts | 265° |
| 2026-05-08 23:53 | 38.74291 | -77.12641 | 4899 ft | 253 kts | 261° |
| 2026-05-08 23:54 | 38.73807 | -77.14795 | 4953 ft | 253 kts | 248° |
| 2026-05-08 23:54 | 38.73099 | -77.16864 | 4989 ft | 256 kts | 244° |
| 2026-05-08 23:54 | 38.72322 | -77.18900 | 4995 ft | 259 kts | 243° |
| 2026-05-08 23:55 | 38.70753 | -77.23105 | 4993 ft | 258 kts | 245° |
| 2026-05-08 23:55 | 38.70032 | -77.25188 | 4988 ft | 255 kts | 246° |
| 2026-05-08 23:55 | 38.69351 | -77.27277 | 4983 ft | 253 kts | 246° |
| 2026-05-08 23:55 | 38.68686 | -77.29354 | 4977 ft | 252 kts | 247° |
| 2026-05-08 23:56 | 38.68029 | -77.31425 | 4979 ft | 250 kts | 247° |
| 2026-05-08 23:56 | 38.67371 | -77.33483 | 4982 ft | 249 kts | 247° |
| 2026-05-08 23:56 | 38.66718 | -77.35532 | 5014 ft | 248 kts | 248° |
| 2026-05-08 23:56 | 38.66064 | -77.37591 | 5456 ft | 249 kts | 248° |
| 2026-05-08 23:57 | 38.65392 | -77.39679 | 6219 ft | 255 kts | 248° |
| 2026-05-08 23:57 | 38.64714 | -77.41797 | 6991 ft | 259 kts | 249° |
| 2026-05-08 23:57 | 38.64038 | -77.43916 | 7745 ft | 262 kts | 249° |
| 2026-05-08 23:57 | 38.63345 | -77.46084 | 8527 ft | 264 kts | 250° |
| 2026-05-08 23:58 | 38.62644 | -77.48275 | 9267 ft | 268 kts | 250° |
| 2026-05-08 23:58 | 38.61934 | -77.50494 | 9988 ft | 271 kts | 251° |
| 2026-05-08 23:58 | 38.61206 | -77.52770 | 10399 ft | 286 kts | 251° |
| 2026-05-08 23:58 | 38.60430 | -77.55201 | 10641 ft | 304 kts | 251° |
| 2026-05-08 23:59 | 38.59607 | -77.57767 | 11050 ft | 316 kts | 250° |
| 2026-05-08 23:59 | 38.58765 | -77.60376 | 11741 ft | 318 kts | 251° |
| 2026-05-08 23:59 | 38.57926 | -77.62984 | 12446 ft | 321 kts | 251° |
| 2026-05-08 23:59 | 38.57074 | -77.65621 | 13172 ft | 322 kts | 251° |
| 2026-05-09 00:00 | 38.56216 | -77.68282 | 13897 ft | 324 kts | 251° |
| 2026-05-09 00:00 | 38.55353 | -77.70948 | 14507 ft | 326 kts | 251° |
| 2026-05-09 00:00 | 38.54489 | -77.73627 | 15128 ft | 327 kts | 251° |
| 2026-05-09 00:00 | 38.53610 | -77.76319 | 15745 ft | 329 kts | 252° |
| 2026-05-09 00:01 | 38.52663 | -77.78996 | 16322 ft | 334 kts | 244° |
| 2026-05-09 00:01 | 38.51305 | -77.81444 | 16903 ft | 341 kts | 237° |
| 2026-05-09 00:01 | 38.49741 | -77.83748 | 17476 ft | 346 kts | 234° |
| 2026-05-09 00:01 | 38.48084 | -77.85991 | 18022 ft | 348 kts | 233° |
| 2026-05-09 00:02 | 38.46410 | -77.88239 | 18532 ft | 350 kts | 232° |
| 2026-05-09 00:02 | 38.44745 | -77.90514 | 19031 ft | 350 kts | 235° |
| 2026-05-09 00:02 | 38.43247 | -77.92960 | 19502 ft | 348 kts | 240° |
| 2026-05-09 00:02 | 38.41897 | -77.95471 | 19971 ft | 348 kts | 242° |
| 2026-05-09 00:03 | 38.40542 | -77.98045 | 20430 ft | 350 kts | 242° |
| 2026-05-09 00:03 | 38.39241 | -78.00501 | 20865 ft | 351 kts | 242° |
| 2026-05-09 00:03 | 38.37944 | -78.02906 | 21284 ft | 353 kts | 240° |
| 2026-05-09 00:03 | 38.36528 | -78.05471 | 21716 ft | 355 kts | 240° |
| 2026-05-09 00:04 | 38.35095 | -78.08047 | 22131 ft | 357 kts | 240° |
| 2026-05-09 00:04 | 38.33673 | -78.10609 | 22539 ft | 358 kts | 240° |
| 2026-05-09 00:04 | 38.32231 | -78.13197 | 22959 ft | 359 kts | 240° |
| 2026-05-09 00:04 | 38.30782 | -78.15801 | 23342 ft | 361 kts | 240° |
| 2026-05-09 00:05 | 38.29325 | -78.18410 | 23638 ft | 363 kts | 240° |
| 2026-05-09 00:05 | 38.28355 | -78.20158 | 23766 ft | 365 kts | 240° |
| 2026-05-09 00:05 | 38.26879 | -78.22792 | 23872 ft | 365 kts | 240° |
| 2026-05-09 00:05 | 38.25406 | -78.25431 | 23928 ft | 367 kts | 240° |
| 2026-05-09 00:06 | 38.23921 | -78.28096 | 23944 ft | 369 kts | 240° |
| 2026-05-09 00:06 | 38.22427 | -78.30762 | 23954 ft | 371 kts | 240° |
| 2026-05-09 00:06 | 38.20929 | -78.33443 | 23964 ft | 371 kts | 240° |
| 2026-05-09 00:06 | 38.19430 | -78.36114 | 23971 ft | 372 kts | 240° |
| 2026-05-09 00:07 | 38.17950 | -78.38805 | 23968 ft | 370 kts | 243° |
| 2026-05-09 00:07 | 38.16762 | -78.41651 | 23971 ft | 366 kts | 250° |
| 2026-05-09 00:07 | 38.15796 | -78.44633 | 23972 ft | 365 kts | 253° |
| 2026-05-09 00:07 | 38.14917 | -78.47666 | 23971 ft | 366 kts | 253° |
| 2026-05-09 00:08 | 38.14045 | -78.50706 | 23973 ft | 366 kts | 253° |
| 2026-05-09 00:08 | 38.13143 | -78.53742 | 23973 ft | 369 kts | 252° |
| 2026-05-09 00:08 | 38.12194 | -78.56788 | 23970 ft | 371 kts | 252° |
| 2026-05-09 00:08 | 38.11241 | -78.59844 | 23965 ft | 373 kts | 252° |
| 2026-05-09 00:09 | 38.10280 | -78.62920 | 23957 ft | 375 kts | 252° |
| 2026-05-09 00:09 | 38.09314 | -78.66002 | 23951 ft | 377 kts | 251° |
| 2026-05-09 00:09 | 38.08359 | -78.69052 | 23970 ft | 378 kts | 252° |
| 2026-05-09 00:09 | 38.07384 | -78.72156 | 23966 ft | 380 kts | 252° |
| 2026-05-09 00:10 | 38.06405 | -78.75273 | 23971 ft | 381 kts | 251° |
| 2026-05-09 00:10 | 38.05434 | -78.78362 | 23945 ft | 382 kts | 251° |
| 2026-05-09 00:10 | 38.04421 | -78.81485 | 23974 ft | 380 kts | 251° |
| 2026-05-09 00:10 | 38.03411 | -78.84568 | 23964 ft | 375 kts | 251° |
| 2026-05-09 00:11 | 38.02439 | -78.87600 | 23960 ft | 366 kts | 252° |
| 2026-05-09 00:11 | 38.01505 | -78.90577 | 23976 ft | 360 kts | 252° |
| 2026-05-09 00:11 | 38.00580 | -78.93494 | 23966 ft | 354 kts | 252° |
| 2026-05-09 00:11 | 37.99762 | -78.96073 | 23338 ft | 355 kts | 252° |
| 2026-05-09 00:12 | 37.98836 | -78.99006 | 22302 ft | 361 kts | 252° |
| 2026-05-09 00:12 | 37.98007 | -79.01618 | 21404 ft | 364 kts | 251° |
| 2026-05-09 00:12 | 37.97053 | -79.04609 | 20402 ft | 366 kts | 251° |
| 2026-05-09 00:12 | 37.96108 | -79.07583 | 19449 ft | 358 kts | 251° |
| 2026-05-09 00:13 | 37.95184 | -79.10485 | 18573 ft | 351 kts | 251° |
| 2026-05-09 00:13 | 37.94286 | -79.13339 | 17634 ft | 350 kts | 252° |
| 2026-05-09 00:13 | 37.93393 | -79.16236 | 16656 ft | 355 kts | 252° |
| 2026-05-09 00:13 | 37.92504 | -79.19140 | 15694 ft | 349 kts | 252° |
| 2026-05-09 00:14 | 37.91622 | -79.21927 | 14792 ft | 341 kts | 251° |
| 2026-05-09 00:14 | 37.90740 | -79.24690 | 13916 ft | 334 kts | 251° |
| 2026-05-09 00:14 | 37.89878 | -79.27392 | 12959 ft | 328 kts | 251° |
| 2026-05-09 00:14 | 37.89033 | -79.30048 | 12078 ft | 325 kts | 250° |
| 2026-05-09 00:15 | 37.88170 | -79.32710 | 11403 ft | 327 kts | 248° |
| 2026-05-09 00:15 | 37.86793 | -79.34974 | 11295 ft | 321 kts | 227° |
| 2026-05-09 00:15 | 37.85136 | -79.36761 | 11294 ft | 305 kts | 224° |
| 2026-05-09 00:15 | 37.83535 | -79.38417 | 11287 ft | 289 kts | 224° |
| 2026-05-09 00:16 | 37.81994 | -79.39973 | 11113 ft | 283 kts | 219° |
| 2026-05-09 00:16 | 37.80282 | -79.41208 | 10839 ft | 283 kts | 212° |
| 2026-05-09 00:16 | 37.78526 | -79.42312 | 10554 ft | 281 kts | 211° |
| 2026-05-09 00:16 | 37.76800 | -79.43403 | 10295 ft | 280 kts | 212° |
| 2026-05-09 00:17 | 37.75091 | -79.44570 | 10012 ft | 279 kts | 213° |
| 2026-05-09 00:17 | 37.73422 | -79.45784 | 9715 ft | 274 kts | 214° |
| 2026-05-09 00:17 | 37.71793 | -79.47005 | 9414 ft | 270 kts | 215° |
| 2026-05-09 00:17 | 37.70180 | -79.48203 | 9129 ft | 267 kts | 215° |
| 2026-05-09 00:18 | 37.68591 | -79.49388 | 8838 ft | 264 kts | 214° |
| 2026-05-09 00:18 | 37.67011 | -79.50559 | 8547 ft | 261 kts | 214° |
| 2026-05-09 00:18 | 37.65452 | -79.51724 | 8276 ft | 261 kts | 214° |
| 2026-05-09 00:18 | 37.63879 | -79.52886 | 8015 ft | 261 kts | 214° |
| 2026-05-09 00:19 | 37.62331 | -79.54033 | 7751 ft | 261 kts | 213° |
| 2026-05-09 00:19 | 37.60767 | -79.55190 | 7494 ft | 261 kts | 213° |
| 2026-05-09 00:19 | 37.59207 | -79.56340 | 7348 ft | 256 kts | 213° |
| 2026-05-09 00:19 | 37.57704 | -79.57457 | 7345 ft | 249 kts | 214° |
| 2026-05-09 00:20 | 37.56193 | -79.58582 | 7352 ft | 255 kts | 213° |
| 2026-05-09 00:20 | 37.54628 | -79.59749 | 7235 ft | 265 kts | 213° |
| 2026-05-09 00:20 | 37.53040 | -79.60947 | 6958 ft | 266 kts | 213° |
| 2026-05-09 00:20 | 37.51467 | -79.62122 | 6666 ft | 266 kts | 213° |
| 2026-05-09 00:21 | 37.50130 | -79.63665 | 6362 ft | 260 kts | 236° |
| 2026-05-09 00:21 | 37.49188 | -79.65611 | 6045 ft | 258 kts | 240° |
| 2026-05-09 00:21 | 37.48388 | -79.67598 | 5738 ft | 251 kts | 244° |
| 2026-05-09 00:21 | 37.47701 | -79.69548 | 5443 ft | 236 kts | 245° |
| 2026-05-09 00:22 | 37.47070 | -79.71403 | 5172 ft | 225 kts | 244° |
| 2026-05-09 00:22 | 37.46457 | -79.73160 | 4893 ft | 212 kts | 242° |
| 2026-05-09 00:22 | 37.45838 | -79.74769 | 4628 ft | 196 kts | 239° |
| 2026-05-09 00:22 | 37.45231 | -79.76218 | 4432 ft | 180 kts | 238° |
| 2026-05-09 00:23 | 37.44664 | -79.77545 | 4262 ft | 161 kts | 236° |
| 2026-05-09 00:23 | 37.44156 | -79.78723 | 4092 ft | 149 kts | 237° |
| 2026-05-09 00:23 | 37.43652 | -79.79873 | 3924 ft | 155 kts | 238° |
| 2026-05-09 00:23 | 37.43118 | -79.81079 | 3750 ft | 160 kts | 237° |
| 2026-05-09 00:24 | 37.42588 | -79.82283 | 3692 ft | 155 kts | 236° |
| 2026-05-09 00:24 | 37.42071 | -79.83466 | 3733 ft | 152 kts | 238° |
| 2026-05-09 00:24 | 37.41521 | -79.84606 | 3595 ft | 151 kts | 231° |
| 2026-05-09 00:24 | 37.40901 | -79.85639 | 3382 ft | 144 kts | 226° |
| 2026-05-09 00:25 | 37.40282 | -79.86562 | 3158 ft | 132 kts | 226° |
| 2026-05-09 00:25 | 37.39706 | -79.87433 | 3021 ft | 135 kts | 229° |
| 2026-05-09 00:25 | 37.39108 | -79.88357 | 2857 ft | 135 kts | 225° |
| 2026-05-09 00:25 | 37.38506 | -79.89278 | 2645 ft | 138 kts | 226° |
| 2026-05-09 00:26 | 37.37896 | -79.90168 | 2517 ft | 131 kts | 221° |
| 2026-05-09 00:26 | 37.37265 | -79.91036 | 2277 ft | 137 kts | 224° |
| 2026-05-09 00:26 | 37.36602 | -79.91943 | 2059 ft | 144 kts | 224° |
| 2026-05-09 00:26 | 37.35964 | -79.92899 | 1942 ft | 142 kts | 227° |
| 2026-05-09 00:27 | 37.35340 | -79.93821 | 1807 ft | 142 kts | 225° |
| 2026-05-09 00:27 | 37.34696 | -79.94779 | 1651 ft | 142 kts | 226° |
| 2026-05-09 00:27 | 37.34074 | -79.95763 | 1419 ft | 144 kts | 222° |
| 2026-05-09 00:27 | 37.33408 | -79.96663 | 1272 ft | 140 kts | 223° |
| 2026-05-09 00:28 | 37.32815 | -79.97524 | 1184 ft | 109 kts | 229° |
| 2026-05-09 00:28 | 37.32494 | -79.97998 | 1183 ft | 42 kts | 229° |
| 2026-05-09 00:28 | 37.32349 | -79.98212 | 1176 ft | 11 kts | 230° |
| 2026-05-09 00:28 | 37.32298 | -79.98283 | 1172 ft | 13 kts | 211° |
| 2026-05-09 00:29 | 37.32216 | -79.98262 | 1170 ft | 13 kts | 140° |
| 2026-05-09 00:29 | 37.32197 | -79.98174 | 1172 ft | 10 kts | 72° |
| 2026-05-09 00:29 | 37.32224 | -79.98103 | 1173 ft | 8 kts | 63° |
| 2026-05-09 00:29 | 37.32249 | -79.98042 | 1177 ft | 7 kts | 63° |
| 2026-05-09 00:30 | 37.32270 | -79.97990 | 1175 ft | 6 kts | 63° |
| 2026-05-09 00:30 | 37.32288 | -79.97945 | 1178 ft | 5 kts | 63° |
| 2026-05-09 00:30 | 37.32304 | -79.97904 | 1179 ft | 5 kts | 63° |
| 2026-05-09 00:30 | 37.32323 | -79.97859 | 1180 ft | 6 kts | 62° |
| 2026-05-09 00:31 | 37.32326 | -79.97852 | 1179 ft | 0 kts | 60° |
| 2026-05-09 00:32 | 37.32333 | -79.97837 | 1180 ft | 5 kts | 60° |
| 2026-05-09 00:32 | 37.32358 | -79.97785 | 1179 ft | 7 kts | 56° |
| 2026-05-09 00:33 | 37.32380 | -79.97743 | 1181 ft | 5 kts | 57° |
| 2026-05-09 00:33 | 37.32403 | -79.97700 | 1180 ft | 6 kts | 57° |
| 2026-05-09 00:33 | 37.32423 | -79.97661 | 1181 ft | 4 kts | 57° |
| 2026-05-09 00:33 | 37.32434 | -79.97637 | 1179 ft | 2 kts | 65° |
| 2026-05-09 00:34 | 37.32436 | -79.97629 | 1180 ft | 2 kts | 74° |
| 2026-05-09 00:34 | 37.32430 | -79.97606 | 1181 ft | 5 kts | 128° |
| 2026-05-09 00:34 | 37.32390 | -79.97566 | 1180 ft | 9 kts | 149° |
| 2026-05-09 00:34 | 37.32343 | -79.97531 | 1175 ft | 7 kts | 150° |
| 2026-05-09 00:35 | 37.32306 | -79.97504 | 1179 ft | 6 kts | 148° |
| 2026-05-09 00:35 | 37.32266 | -79.97473 | 1177 ft | 8 kts | 148° |
| 2026-05-09 00:35 | 37.32216 | -79.97432 | 1176 ft | 9 kts | 147° |
| 2026-05-09 00:35 | 37.32169 | -79.97394 | 1178 ft | 7 kts | 147° |
| 2026-05-09 00:36 | 37.32143 | -79.97357 | 1175 ft | 4 kts | 90° |
| 2026-05-09 00:36 | 37.32149 | -79.97340 | 1176 ft | 2 kts | 54° |
| 2026-05-09 00:36 | 37.32163 | -79.97316 | 1176 ft | 4 kts | 54° |
| 2026-05-09 00:36 | 37.32174 | -79.97295 | 1177 ft | 2 kts | 61° |
| 2026-05-09 00:37 | 37.32175 | -79.97292 | 1176 ft | 0 kts | 67° |
| 2026-05-09 00:37 | 37.32175 | -79.97291 | 1176 ft | 1 kts | 66° |
| 2026-05-09 00:37 | 37.32191 | -79.97260 | 1178 ft | 9 kts | 58° |
| 2026-05-09 00:37 | 37.32226 | -79.97190 | 1177 ft | 7 kts | 58° |
| 2026-05-09 00:38 | 37.32228 | -79.97177 | 1178 ft | 2 kts | 100° |
| 2026-05-09 00:38 | 37.32212 | -79.97154 | 1176 ft | 4 kts | 139° |
| 2026-05-09 00:38 | 37.32202 | -79.97143 | 1178 ft | 1 kts | 137° |
| 2026-05-09 00:38 | 37.32201 | -79.97142 | 1178 ft | 1 kts | 140° |
| 2026-05-09 00:39 | 37.32196 | -79.97137 | 1178 ft | 1 kts | 148° |
| 2026-05-09 00:39 | 37.32193 | -79.97135 | 1178 ft | 0 kts | 146° |